Time;durP1;ratioP1;P1;durP2;ratioP2;P2;SDS_P1;SDS_P2;PMS_P1;PMS_P2;Temp;Humidity;BMP_temperature;BMP_pressure;BME280_temperature;BME280_humidity;BME280_pressure;Samples;Min_cycle;Max_cycle;Signal;HPM_P1;HPM_P2
2024/04/04 00:01:57;;;;;;;0.60;0.30;;;;;;;10.60;100.00;99119.34;105966;1259;73171;-56
2024/04/04 00:04:24;;;;;;;0.50;0.20;;;;;;;10.58;100.00;99127.18;105910;1257;61340;-57
2024/04/04 00:06:51;;;;;;;0.80;0.20;;;;;;;10.56;100.00;99134.28;105914;1260;61269;-56
2024/04/04 00:09:19;;;;;;;2.30;0.20;;;;;;;10.54;100.00;99140.65;106144;1259;74885;-55
2024/04/04 00:11:46;;;;;;;1.80;0.20;;;;;;;10.54;100.00;99146.45;106238;1256;67470;-55
2024/04/04 00:14:12;;;;;;;0.70;0.20;;;;;;;10.54;100.00;99144.30;105946;1259;73184;-57
2024/04/04 00:16:39;;;;;;;0.60;0.20;;;;;;;10.54;100.00;99142.33;105935;1257;61319;-57
2024/04/04 00:19:06;;;;;;;0.40;0.20;;;;;;;10.53;100.00;99139.48;105880;1257;62334;-54
2024/04/04 00:21:33;;;;;;;0.40;0.20;;;;;;;10.54;100.00;99142.09;105991;1256;74711;-56
2024/04/04 00:23:59;;;;;;;0.40;0.20;;;;;;;10.54;100.00;99140.48;105956;1257;66441;-56
2024/04/04 00:26:27;;;;;;;0.60;0.20;;;;;;;10.53;100.00;99138.39;106132;1256;73081;-54
2024/04/04 00:28:54;;;;;;;2.90;0.30;;;;;;;10.54;100.00;99139.10;105973;1258;61103;-56
2024/04/04 00:31:21;;;;;;;2.40;0.20;;;;;;;10.54;100.00;99139.64;106084;1256;61390;-55
2024/04/04 00:33:48;;;;;;;1.90;0.20;;;;;;;10.53;100.00;99136.80;105890;1258;74533;-57
2024/04/04 00:36:15;;;;;;;1.50;0.30;;;;;;;10.52;100.00;99137.38;105888;1261;66940;-58
2024/04/04 00:38:42;;;;;;;2.00;0.20;;;;;;;10.52;100.00;99141.33;105869;1272;73428;-55
2024/04/04 00:41:09;;;;;;;0.40;0.20;;;;;;;10.53;100.00;99139.15;105882;1256;61414;-57
2024/04/04 00:43:37;;;;;;;1.70;0.20;;;;;;;10.53;100.00;99136.46;105821;1261;61234;-57
2024/04/04 00:46:05;;;;;;;0.40;0.20;;;;;;;10.53;100.00;99139.49;105834;1260;73926;-56
2024/04/04 00:48:32;;;;;;;1.00;0.20;;;;;;;10.52;100.00;99134.90;105823;1256;66857;-56
2024/04/04 00:50:59;;;;;;;1.40;0.20;;;;;;;10.51;100.00;99137.65;105803;1270;72340;-56
2024/04/04 00:53:26;;;;;;;0.50;0.10;;;;;;;10.50;100.00;99136.98;105865;1260;61362;-55
2024/04/04 00:55:54;;;;;;;0.90;0.20;;;;;;;10.48;100.00;99133.12;105914;1264;61298;-56
2024/04/04 00:58:21;;;;;;;0.50;0.10;;;;;;;10.47;100.00;99136.77;105997;1259;74401;-56
2024/04/04 01:00:47;;;;;;;2.00;0.40;;;;;;;10.45;100.00;99132.78;105916;1262;67134;-57
2024/04/04 01:03:14;;;;;;;1.90;0.20;;;;;;;10.43;100.00;99134.71;106048;1263;73108;-58
2024/04/04 01:05:41;;;;;;;2.40;0.10;;;;;;;10.41;100.00;99133.20;105747;1257;61314;-55
2024/04/04 01:08:08;;;;;;;0.30;0.20;;;;;;;10.38;100.00;99136.42;105917;1256;60950;-56
2024/04/04 01:10:35;;;;;;;0.50;0.20;;;;;;;10.35;100.00;99136.23;105794;1263;74707;-57
2024/04/04 01:13:02;;;;;;;1.00;0.30;;;;;;;10.33;100.00;99136.35;108789;1256;66653;-55
2024/04/04 01:15:29;;;;;;;0.40;0.20;;;;;;;10.31;100.00;99136.64;105855;1259;71471;-56
2024/04/04 01:17:58;;;;;;;1.50;0.30;;;;;;;10.29;100.00;99141.09;106016;1259;61215;-56
2024/04/04 01:20:25;;;;;;;1.40;0.30;;;;;;;10.26;100.00;99141.42;105903;1260;61317;-57
2024/04/04 01:22:52;;;;;;;0.70;0.20;;;;;;;10.24;100.00;99142.77;105910;1257;74659;-56
2024/04/04 01:25:19;;;;;;;0.60;0.30;;;;;;;10.21;100.00;99146.30;105908;1259;67400;-58
2024/04/04 01:27:49;;;;;;;0.60;0.20;;;;;;;10.18;100.00;99145.63;105824;1257;73265;-57
2024/04/04 01:30:16;;;;;;;0.50;0.20;;;;;;;10.15;100.00;99145.40;106132;1255;61313;-58
2024/04/04 01:32:43;;;;;;;0.60;0.20;;;;;;;10.12;100.00;99148.23;105936;1276;61178;-57
2024/04/04 01:35:10;;;;;;;0.60;0.20;;;;;;;10.10;100.00;99149.80;105764;1261;75011;-58
2024/04/04 01:37:36;;;;;;;0.40;0.20;;;;;;;10.08;100.00;99151.52;105738;1260;66937;-56
2024/04/04 01:40:04;;;;;;;0.90;0.40;;;;;;;10.06;100.00;99155.42;105760;1256;71697;-56
2024/04/04 01:42:31;;;;;;;0.60;0.20;;;;;;;10.03;100.00;99154.52;106071;1257;61125;-56
2024/04/04 01:44:58;;;;;;;0.40;0.20;;;;;;;10.01;100.00;99157.71;105779;1260;61654;-57
2024/04/04 01:47:25;;;;;;;1.60;0.30;;;;;;;9.97;100.00;99160.93;105934;1256;75110;-56
2024/04/04 01:49:52;;;;;;;2.30;0.30;;;;;;;9.94;100.00;99162.01;105905;1257;68187;-56
2024/04/04 01:52:18;;;;;;;0.60;0.20;;;;;;;9.92;100.00;99165.19;105937;1260;72844;-58
2024/04/04 01:54:45;;;;;;;1.60;0.20;;;;;;;9.89;100.00;99168.00;105835;1256;61294;-58
2024/04/04 01:57:12;;;;;;;0.60;0.20;;;;;;;9.87;100.00;99170.59;105996;1259;62091;-57
2024/04/04 01:59:39;;;;;;;1.80;0.20;;;;;;;9.86;100.00;99172.86;106029;1257;74132;-56
2024/04/04 02:02:05;;;;;;;0.50;0.20;;;;;;;9.83;100.00;99176.19;105889;1257;66783;-55
2024/04/04 02:04:32;;;;;;;2.50;0.30;;;;;;;9.82;100.00;99181.12;108485;1256;73129;-55
2024/04/04 02:06:59;;;;;;;0.40;0.20;;;;;;;9.79;100.00;99182.31;109001;1256;59189;-55
2024/04/04 02:09:27;;;;;;;0.80;0.30;;;;;;;9.78;100.00;99187.63;108859;1256;59030;-55
2024/04/04 02:11:54;;;;;;;0.70;0.20;;;;;;;9.77;100.00;99191.24;108880;1257;74499;-55
2024/04/04 02:14:21;;;;;;;5.80;0.30;;;;;;;9.75;100.00;99194.91;108906;1256;68212;-55
2024/04/04 02:16:48;;;;;;;2.90;0.20;;;;;;;9.76;100.00;99192.20;106464;1259;72608;-55
2024/04/04 02:19:15;;;;;;;1.20;0.20;;;;;;;9.76;100.00;99196.30;108758;1257;58970;-55
2024/04/04 02:21:41;;;;;;;1.10;0.20;;;;;;;9.77;100.00;99196.81;108940;1257;59292;-56
2024/04/04 02:24:08;;;;;;;0.50;0.20;;;;;;;9.76;100.00;99205.61;109029;1256;74389;-58
2024/04/04 02:26:35;;;;;;;0.40;0.20;;;;;;;9.75;100.00;99204.79;109080;1256;65515;-54
2024/04/04 02:29:02;;;;;;;0.90;0.30;;;;;;;9.73;100.00;99215.82;108887;1256;72294;-55
2024/04/04 02:31:29;;;;;;;0.60;0.40;;;;;;;9.67;100.00;99223.65;106074;1256;62241;-55
2024/04/04 02:33:55;;;;;;;1.10;0.30;;;;;;;9.60;100.00;99227.65;105901;1256;61359;-54
2024/04/04 02:36:24;;;;;;;0.40;0.30;;;;;;;9.53;100.00;99228.55;108865;1256;74793;-55
2024/04/04 02:38:51;;;;;;;0.90;0.30;;;;;;;9.45;100.00;99233.42;108974;1257;68178;-56
2024/04/04 02:41:18;;;;;;;1.40;0.30;;;;;;;9.38;100.00;99236.66;108931;1256;72554;-55
2024/04/04 02:43:45;;;;;;;0.40;0.20;;;;;;;9.30;100.00;99244.59;107191;1259;62219;-56
2024/04/04 02:46:12;;;;;;;1.80;0.20;;;;;;;9.22;100.00;99249.66;108902;1256;59277;-58
2024/04/04 02:48:38;;;;;;;0.60;0.30;;;;;;;9.14;100.00;99251.67;106420;1259;73887;-56
2024/04/04 02:51:06;;;;;;;1.70;0.30;;;;;;;9.07;100.00;99255.23;105835;1259;67310;-54
2024/04/04 02:53:33;;;;;;;0.60;0.20;;;;;;;8.99;100.00;99258.17;106189;1257;73181;-54
2024/04/04 02:55:59;;;;;;;0.50;0.30;;;;;;;8.90;100.00;99261.84;105866;1257;61740;-54
2024/04/04 02:58:26;;;;;;;0.50;0.30;;;;;;;8.83;100.00;99263.61;106355;1256;61862;-53
2024/04/04 03:00:53;;;;;;;0.20;0.10;;;;;;;8.77;100.00;99271.42;105886;1259;74972;-54
2024/04/04 03:03:20;;;;;;;0.30;0.20;;;;;;;8.70;100.00;99270.84;105797;1257;67338;-53
2024/04/04 03:05:46;;;;;;;0.20;0.20;;;;;;;8.67;100.00;99274.44;105662;1256;72689;-56
2024/04/04 03:08:13;;;;;;;0.50;0.20;;;;;;;8.64;100.00;99276.88;106074;1257;61210;-55
2024/04/04 03:10:40;;;;;;;0.20;0.20;;;;;;;8.62;100.00;99281.96;105824;1256;61460;-55
2024/04/04 03:13:07;;;;;;;0.50;0.30;;;;;;;8.61;100.00;99285.77;105737;1257;75393;-56
2024/04/04 03:15:34;;;;;;;0.40;0.20;;;;;;;8.60;100.00;99290.66;106063;1257;66993;-53
2024/04/04 03:18:00;;;;;;;0.50;0.20;;;;;;;8.58;100.00;99295.58;105782;1257;73099;-53
2024/04/04 03:20:27;;;;;;;0.50;0.30;;;;;;;8.55;100.00;99295.02;105738;1259;64270;-55
2024/04/04 03:22:57;;;;;;;0.30;0.20;;;;;;;8.51;100.00;99298.42;105898;1259;61334;-55
2024/04/04 03:25:25;;;;;;;0.70;0.30;;;;;;;8.44;100.00;99301.98;105840;1259;74893;-54
2024/04/04 03:29:55;;;;;;;0.30;0.20;;;;;;;8.34;100.00;99299.01;102843;1305;601105;-56
2024/04/04 03:32:22;;;;;;;0.20;0.20;;;;;;;8.25;100.00;99305.84;105271;1266;59663;-56
2024/04/04 03:34:49;;;;;;;0.10;0.10;;;;;;;8.17;100.00;99310.33;105381;1264;59594;-53
2024/04/04 03:37:15;;;;;;;1.40;0.10;;;;;;;8.09;100.00;99309.80;105725;1264;59603;-55
2024/04/04 03:39:42;;;;;;;0.40;0.20;;;;;;;8.01;100.00;99309.27;105335;1280;65958;-56
2024/04/04 03:42:09;;;;;;;0.20;0.10;;;;;;;7.93;100.00;99311.26;105412;1263;72320;-55
2024/04/04 03:44:36;;;;;;;1.70;0.10;;;;;;;7.86;100.00;99315.84;101620;1263;5237470;-55
2024/04/04 03:47:04;;;;;;;0.10;0.10;;;;;;;7.80;100.00;99318.81;105986;1266;59531;-56
2024/04/04 03:49:31;;;;;;;0.90;0.10;;;;;;;7.73;100.00;99322.66;105732;1260;73316;-54
2024/04/04 03:51:57;;;;;;;0.40;0.10;;;;;;;7.69;100.00;99330.87;105640;1260;66856;-56
2024/04/04 03:54:24;;;;;;;0.20;0.10;;;;;;;7.64;100.00;99329.14;106010;1266;73053;-55
2024/04/04 03:56:51;;;;;;;0.10;0.10;;;;;;;7.59;100.00;99330.92;105693;1261;62186;-56
2024/04/04 03:59:32;;;;;;;1.20;0.10;;;;;;;7.58;100.00;99339.92;105674;1266;60386;-55
2024/04/04 04:01:59;;;;;;;0.20;0.10;;;;;;;7.57;100.00;99344.07;105638;1261;73864;-57
2024/04/04 04:04:26;;;;;;;0.10;0.10;;;;;;;7.57;100.00;99348.20;105770;1260;67015;-55
2024/04/04 04:06:53;;;;;;;0.20;0.10;;;;;;;7.55;100.00;99346.14;105574;1265;72837;-57
2024/04/04 04:09:20;;;;;;;0.20;0.10;;;;;;;7.53;100.00;99350.89;106056;1265;61105;-55
2024/04/04 04:11:47;;;;;;;0.30;0.10;;;;;;;7.49;100.00;99356.90;105731;1266;62212;-56
2024/04/04 04:14:15;;;;;;;0.10;0.10;;;;;;;7.45;100.00;99359.58;105591;1266;74355;-56
2024/04/04 04:16:42;;;;;;;0.10;0.10;;;;;;;7.41;100.00;99367.77;105654;1263;65893;-56
2024/04/04 04:19:09;;;;;;;0.10;0.00;;;;;;;7.39;100.00;99372.52;106494;1262;72792;-56
2024/04/04 04:21:35;;;;;;;0.10;0.10;;;;;;;7.37;100.00;99380.45;105621;1274;60687;-57
2024/04/04 04:24:02;;;;;;;1.20;0.10;;;;;;;7.34;100.00;99379.31;105642;1266;60773;-56
2024/04/04 04:26:32;;;;;;;2.70;0.10;;;;;;;7.32;100.00;99379.55;105652;1260;73053;-55
2024/04/04 04:28:59;;;;;;;0.20;0.10;;;;;;;7.31;100.00;99386.77;105799;1260;67015;-55
2024/04/04 04:31:26;;;;;;;0.10;0.10;;;;;;;7.24;100.00;99391.52;105777;1263;73131;-58
2024/04/04 04:33:54;;;;;;;0.10;0.10;;;;;;;7.17;100.00;99394.66;105634;1266;60202;-55
2024/04/04 04:36:23;;;;;;;0.30;0.10;;;;;;;7.15;100.00;99397.77;106101;1266;60711;-55
2024/04/04 04:38:49;;;;;;;0.20;0.10;;;;;;;7.27;100.00;99397.67;106304;1262;73748;-55
2024/04/04 04:41:19;;;;;;;0.20;0.10;;;;;;;7.57;100.00;99403.91;105467;1265;65251;-55
2024/04/04 04:43:46;;;;;;;0.80;0.10;;;;;;;7.93;100.00;99401.48;105982;1262;72658;-54
2024/04/04 04:46:13;;;;;;;0.10;0.10;;;;;;;8.29;100.00;99405.47;105831;1263;61471;-53
2024/04/04 04:48:40;;;;;;;0.10;0.10;;;;;;;8.64;100.00;99407.82;105533;1263;60313;-55
2024/04/04 04:51:07;;;;;;;2.60;0.10;;;;;;;8.95;100.00;99413.52;105451;1270;73817;-54
2024/04/04 04:53:34;;;;;;;0.10;0.10;;;;;;;9.16;100.00;99413.55;105502;1265;66810;-54
2024/04/04 04:56:01;;;;;;;0.40;0.10;;;;;;;9.27;100.00;99416.48;108523;1262;73092;-55
2024/04/04 04:58:29;;;;;;;0.10;0.10;;;;;;;9.26;100.00;99421.36;106598;1263;59280;-56
2024/04/04 05:00:56;;;;;;;0.10;0.00;;;;;;;9.14;100.00;99427.64;105531;1266;61253;-57
2024/04/04 05:03:23;;;;;;;0.10;0.10;;;;;;;8.92;100.00;99432.42;108714;1261;73994;-55
2024/04/04 05:05:52;;;;;;;0.40;0.10;;;;;;;8.70;100.00;99433.11;108254;1262;66979;-57
2024/04/04 05:08:19;;;;;;;1.20;0.10;;;;;;;8.48;100.00;99429.98;105458;1261;73148;-56
2024/04/04 05:10:46;;;;;;;0.10;0.10;;;;;;;8.33;100.00;99433.68;105507;1266;60800;-54
2024/04/04 05:13:13;;;;;;;0.30;0.10;;;;;;;8.25;100.00;99436.36;108582;1263;58772;-57
2024/04/04 05:15:47;;;;;;;0.20;0.10;;;;;;;8.21;100.00;99437.61;108663;1261;72329;-56
2024/04/04 05:18:14;;;;;;;0.10;0.10;;;;;;;8.19;100.00;99440.90;108519;1263;65745;-56
2024/04/04 05:20:42;;;;;;;0.20;0.10;;;;;;;8.17;100.00;99447.98;108662;1262;71492;-56
2024/04/04 05:23:08;;;;;;;0.10;0.10;;;;;;;8.11;100.00;99450.74;108585;1262;60128;-56
2024/04/04 05:25:36;;;;;;;0.20;0.10;;;;;;;8.03;100.00;99458.23;106303;1266;60397;-56
2024/04/04 05:28:04;;;;;;;0.20;0.10;;;;;;;7.93;100.00;99453.63;105480;1263;71392;-57
2024/04/04 05:30:31;;;;;;;0.20;0.10;;;;;;;7.85;100.00;99454.50;108670;1261;68109;-56
2024/04/04 05:33:01;;;;;;;0.10;0.10;;;;;;;7.80;100.00;99460.45;108482;1262;70973;-56
2024/04/04 05:35:28;;;;;;;0.40;0.10;;;;;;;7.77;100.00;99454.67;108607;1260;60582;-55
2024/04/04 05:37:55;;;;;;;2.00;0.20;;;;;;;7.76;100.00;99461.34;105679;1261;60502;-58
2024/04/04 05:40:25;;;;;;;0.50;0.20;;;;;;;7.74;100.00;99468.18;105697;1263;74266;-57
2024/04/04 05:42:52;;;;;;;0.30;0.20;;;;;;;7.73;100.00;99473.61;105659;1264;67047;-57
2024/04/04 05:45:19;;;;;;;0.30;0.20;;;;;;;7.75;100.00;99478.89;105618;1267;72789;-58
2024/04/04 05:47:46;;;;;;;0.10;0.10;;;;;;;7.75;100.00;99478.70;105524;1266;60409;-58
2024/04/04 05:50:13;;;;;;;0.30;0.20;;;;;;;7.74;100.00;99485.36;105628;1266;60594;-59
2024/04/04 05:52:40;;;;;;;0.20;0.10;;;;;;;7.74;100.00;99489.48;105594;1266;73139;-57
2024/04/04 05:55:09;;;;;;;0.20;0.10;;;;;;;7.72;100.00;99492.43;105587;1266;68173;-59
2024/04/04 05:57:36;;;;;;;0.50;0.10;;;;;;;7.70;100.00;99499.65;105994;1267;73038;-59
2024/04/04 06:00:03;;;;;;;0.30;0.10;;;;;;;7.71;100.00;99503.00;105623;1265;61282;-58
2024/04/04 06:02:38;;;;;;;1.90;0.20;;;;;;;7.73;100.00;99504.16;105562;1263;60233;-58
2024/04/04 06:05:05;;;;;;;0.20;0.10;;;;;;;7.74;100.00;99509.13;105637;1263;74519;-59
2024/04/04 06:07:33;;;;;;;0.20;0.10;;;;;;;7.75;100.00;99508.68;105612;1266;66989;-57
2024/04/04 06:10:00;;;;;;;0.30;0.10;;;;;;;7.76;100.00;99510.80;105568;1262;70802;-57
2024/04/04 06:12:27;;;;;;;1.60;0.10;;;;;;;7.75;100.00;99506.73;105653;1266;61198;-58
2024/04/04 06:14:53;;;;;;;0.20;0.10;;;;;;;7.75;100.00;99504.23;105589;1267;60046;-57
2024/04/04 06:17:20;;;;;;;0.20;0.10;;;;;;;7.78;100.00;99505.56;105598;1266;74922;-58
2024/04/04 06:19:47;;;;;;;0.50;0.10;;;;;;;7.78;100.00;99508.40;105589;1266;67078;-58
2024/04/04 06:22:13;;;;;;;0.10;0.10;;;;;;;7.78;100.00;99510.36;105576;1266;72895;-59
2024/04/04 06:24:40;;;;;;;0.60;0.10;;;;;;;7.83;100.00;99516.77;105600;1264;60463;-56
2024/04/04 06:27:07;;;;;;;0.10;0.10;;;;;;;7.85;100.00;99515.98;105701;1266;61208;-56
2024/04/04 06:29:34;;;;;;;0.10;0.10;;;;;;;7.83;100.00;99528.19;105571;1266;73466;-57
2024/04/04 06:32:04;;;;;;;0.20;0.10;;;;;;;7.81;100.00;99524.71;105491;1263;67947;-56
2024/04/04 06:34:31;;;;;;;0.30;0.10;;;;;;;7.77;100.00;99533.08;105745;1260;73406;-55
2024/04/04 06:36:57;;;;;;;0.10;0.00;;;;;;;7.72;100.00;99531.69;105460;1263;61699;-55
2024/04/04 06:39:24;;;;;;;0.20;0.10;;;;;;;7.70;100.00;99537.15;105390;1267;62003;-54
2024/04/04 06:41:52;;;;;;;0.10;0.00;;;;;;;7.66;100.00;99544.27;105879;1260;71833;-57
2024/04/04 06:44:18;;;;;;;0.20;0.10;;;;;;;7.62;100.00;99551.38;106137;1261;67231;-56
2024/04/04 06:46:45;;;;;;;0.10;0.10;;;;;;;7.63;100.00;99556.18;105834;1260;72816;-57
2024/04/04 06:49:12;;;;;;;0.10;0.10;;;;;;;7.63;100.00;99565.83;105674;1264;60543;-55
2024/04/04 06:51:39;;;;;;;0.40;0.10;;;;;;;7.61;100.00;99570.35;105776;1260;62018;-56
2024/04/04 06:54:05;;;;;;;0.30;0.10;;;;;;;7.59;100.00;99570.77;105800;1257;73811;-55
2024/04/04 06:56:32;;;;;;;0.20;0.10;;;;;;;7.59;100.00;99578.64;105766;1261;67141;-57
2024/04/04 06:58:59;;;;;;;0.20;0.10;;;;;;;7.60;100.00;99580.75;105971;1259;73216;-55
2024/04/04 07:01:29;;;;;;;1.80;0.10;;;;;;;7.55;100.00;99578.05;105822;1258;60874;-55
2024/04/04 07:03:56;;;;;;;0.20;0.10;;;;;;;7.48;100.00;99581.39;105883;1257;60495;-55
2024/04/04 07:06:24;;;;;;;0.30;0.10;;;;;;;7.42;100.00;99581.27;106115;1259;73536;-55
2024/04/04 07:08:51;;;;;;;2.40;0.10;;;;;;;7.35;100.00;99585.30;105959;1259;67819;-54
2024/04/04 07:11:18;;;;;;;0.10;0.10;;;;;;;7.29;100.00;99587.30;106625;1262;72669;-56
2024/04/04 07:13:45;;;;;;;0.20;0.10;;;;;;;7.24;100.00;99588.57;105925;1261;60773;-56
2024/04/04 07:16:12;;;;;;;0.30;0.10;;;;;;;7.23;100.00;99595.56;105913;1261;60603;-56
2024/04/04 07:18:40;;;;;;;0.10;0.10;;;;;;;7.25;100.00;99595.46;106168;1262;73722;-56
2024/04/04 07:21:06;;;;;;;0.30;0.10;;;;;;;7.31;100.00;99598.64;105793;1262;66949;-56
2024/04/04 07:23:33;;;;;;;0.60;0.10;;;;;;;7.40;100.00;99599.36;105946;1260;72288;-55
2024/04/04 07:26:00;;;;;;;0.20;0.20;;;;;;;7.49;100.00;99604.55;106124;1262;60894;-57
2024/04/04 07:28:27;;;;;;;0.40;0.20;;;;;;;7.57;100.00;99604.96;105812;1260;60441;-56
2024/04/04 07:30:54;;;;;;;0.30;0.20;;;;;;;7.63;100.00;99606.71;105773;1263;75148;-56
2024/04/04 07:33:21;;;;;;;0.40;0.20;;;;;;;7.69;100.00;99606.83;105830;1261;66378;-55
2024/04/04 07:35:49;;;;;;;0.20;0.10;;;;;;;7.77;100.00;99612.41;105883;1260;72515;-54
2024/04/04 07:38:16;;;;;;;0.20;0.10;;;;;;;7.86;100.00;99611.88;107946;1258;59905;-54
2024/04/04 07:40:43;;;;;;;0.30;0.10;;;;;;;7.88;100.00;99612.85;105873;1260;60457;-56
2024/04/04 07:43:10;;;;;;;0.30;0.10;;;;;;;7.87;100.00;99616.30;105872;1263;74294;-55
2024/04/04 07:45:38;;;;;;;0.20;0.10;;;;;;;7.89;100.00;99620.67;105764;1260;67250;-54
2024/04/04 07:48:08;;;;;;;0.30;0.10;;;;;;;7.89;100.00;99625.87;105979;1261;71744;-54
2024/04/04 07:50:35;;;;;;;0.20;0.10;;;;;;;7.88;100.00;99630.56;106157;1259;61294;-56
2024/04/04 07:53:03;;;;;;;0.30;0.10;;;;;;;7.87;100.00;99638.27;108794;1258;59193;-56
2024/04/04 07:55:30;;;;;;;0.20;0.10;;;;;;;7.86;100.00;99638.32;108892;1258;74708;-56
2024/04/04 07:57:56;;;;;;;0.30;0.10;;;;;;;7.88;100.00;99638.95;108812;1258;65956;-55
2024/04/04 08:00:24;;;;;;;1.80;0.10;;;;;;;7.92;100.00;99643.26;108748;1259;72836;-56
2024/04/04 08:02:51;;;;;;;0.10;0.00;;;;;;;7.97;100.00;99641.98;108765;1259;59150;-57
2024/04/04 08:05:18;;;;;;;0.20;0.10;;;;;;;8.02;100.00;99646.24;108827;1260;59940;-57
2024/04/04 08:07:45;;;;;;;0.30;0.10;;;;;;;8.10;100.00;99653.80;108883;1259;76036;-56
2024/04/04 08:10:14;;;;;;;0.20;0.10;;;;;;;8.14;100.00;99657.05;107661;1258;65913;-55
2024/04/04 08:12:41;;;;;;;0.20;0.10;;;;;;;8.10;100.00;99653.61;108768;1259;71332;-57
2024/04/04 08:15:12;;;;;;;0.20;0.00;;;;;;;8.07;100.00;99649.44;108883;1260;58907;-57
2024/04/04 08:17:42;;;;;;;0.20;0.10;;;;;;;8.09;100.00;99657.21;108778;1262;61447;-55
2024/04/04 08:20:18;;;;;;;0.20;0.10;;;;;;;8.10;100.00;99652.89;108893;1259;75392;-56
2024/04/04 08:22:49;;;;;;;0.20;0.10;;;;;;;8.14;100.00;99655.96;108797;1259;65987;-58
2024/04/04 08:25:16;;;;;;;1.20;0.10;;;;;;;8.18;100.00;99658.09;108756;1259;72481;-56
2024/04/04 08:27:44;;;;;;;0.10;0.10;;;;;;;8.21;100.00;99653.38;108921;1259;59335;-57
2024/04/04 08:30:14;;;;;;;0.10;0.10;;;;;;;8.27;100.00;99668.30;108806;1258;58966;-56
2024/04/04 08:32:40;;;;;;;0.70;0.10;;;;;;;8.30;100.00;99667.81;108473;1259;74940;-58
2024/04/04 08:35:09;;;;;;;0.40;0.10;;;;;;;8.32;100.00;99669.21;107353;1260;66571;-56
2024/04/04 08:37:36;;;;;;;0.00;0.00;;;;;;;8.37;100.00;99670.97;107063;1260;73683;-56
2024/04/04 08:40:06;;;;;;;0.20;0.10;;;;;;;8.43;100.00;99672.69;105861;1273;61460;-56
2024/04/04 08:42:33;;;;;;;0.20;0.10;;;;;;;8.49;100.00;99671.03;105954;1263;61233;-55
2024/04/04 08:45:00;;;;;;;1.90;0.20;;;;;;;8.53;100.00;99677.28;105828;1262;73787;-56
2024/04/04 08:47:27;;;;;;;0.50;0.10;;;;;;;8.57;100.00;99680.34;105681;1265;67136;-58
2024/04/04 08:49:54;;;;;;;0.20;0.10;;;;;;;8.52;100.00;99683.05;105663;1264;73075;-56
2024/04/04 08:52:21;;;;;;;0.10;0.10;;;;;;;8.44;100.00;99690.54;105706;1264;61321;-55
2024/04/04 08:54:48;;;;;;;0.90;0.10;;;;;;;8.33;100.00;99699.19;105832;1262;61855;-56
2024/04/04 08:57:14;;;;;;;0.10;0.10;;;;;;;8.26;100.00;99693.35;105918;1259;74451;-56
2024/04/04 08:59:54;;;;;;;0.10;0.10;;;;;;;8.20;100.00;99695.22;105666;1264;67345;-56
2024/04/04 09:02:21;;;;;;;0.10;0.10;;;;;;;8.17;100.00;99701.97;105905;1281;71189;-57
2024/04/04 09:04:48;;;;;;;0.10;0.10;;;;;;;8.14;100.00;99701.02;105921;1258;61562;-56
2024/04/04 09:07:15;;;;;;;0.20;0.10;;;;;;;8.15;100.00;99699.53;105776;1260;61435;-57
2024/04/04 09:09:46;;;;;;;0.20;0.10;;;;;;;8.21;100.00;99690.89;105766;1261;74508;-58
2024/04/04 09:12:16;;;;;;;0.10;0.10;;;;;;;8.30;100.00;99691.78;106103;1262;64953;-56
2024/04/04 09:14:43;;;;;;;0.10;0.00;;;;;;;8.30;100.00;99690.38;105732;1264;72556;-56
2024/04/04 09:17:11;;;;;;;0.10;0.10;;;;;;;8.33;100.00;99691.48;106049;1262;61543;-55
2024/04/04 09:19:39;;;;;;;2.30;0.10;;;;;;;8.36;100.00;99686.77;105963;1260;61276;-56
2024/04/04 09:22:07;;;;;;;0.10;0.10;;;;;;;8.28;100.00;99687.56;106428;1262;73901;-56
2024/04/04 09:24:34;;;;;;;0.20;0.10;;;;;;;8.24;100.00;99691.50;105731;1261;66161;-55
2024/04/04 09:27:11;;;;;;;0.20;0.10;;;;;;;8.29;100.00;99695.75;105848;1263;72623;-55
2024/04/04 09:29:38;;;;;;;0.20;0.10;;;;;;;8.38;100.00;99692.40;105740;1262;61283;-55
2024/04/04 09:32:05;;;;;;;2.30;0.10;;;;;;;8.44;100.00;99686.59;105714;1264;61307;-56
2024/04/04 09:34:32;;;;;;;0.30;0.10;;;;;;;8.49;100.00;99689.80;105624;1263;74629;-56
2024/04/04 09:36:59;;;;;;;2.60;0.10;;;;;;;8.52;100.00;99683.95;105376;1265;67029;-55
2024/04/04 09:39:26;;;;;;;0.10;0.10;;;;;;;8.55;100.00;99692.40;105539;1264;73424;-55
2024/04/04 09:41:54;;;;;;;1.50;0.10;;;;;;;8.56;100.00;99685.95;105573;1266;61412;-56
2024/04/04 09:44:21;;;;;;;0.20;0.10;;;;;;;8.57;100.00;99681.24;105797;1282;60236;-56
2024/04/04 09:46:48;;;;;;;0.10;0.10;;;;;;;8.62;100.00;99684.05;105765;1273;75622;-56
2024/04/04 09:49:15;;;;;;;0.20;0.10;;;;;;;8.69;100.00;99687.73;105889;1262;67338;-56
2024/04/04 09:51:43;;;;;;;0.20;0.10;;;;;;;8.77;100.00;99686.29;105672;1260;72617;-55
2024/04/04 09:54:10;;;;;;;0.60;0.10;;;;;;;8.86;100.00;99690.93;105839;1263;61215;-56
2024/04/04 09:56:37;;;;;;;0.20;0.10;;;;;;;8.93;100.00;99693.33;105924;1260;60947;-58
2024/04/04 09:59:04;;;;;;;0.20;0.10;;;;;;;9.00;100.00;99695.34;105493;1265;73137;-57
2024/04/04 10:01:31;;;;;;;0.30;0.10;;;;;;;9.02;100.00;99687.00;105987;1262;66710;-56
2024/04/04 10:03:59;;;;;;;0.10;0.10;;;;;;;9.01;100.00;99685.08;105660;1262;72406;-55
2024/04/04 10:06:36;;;;;;;0.10;0.10;;;;;;;9.08;100.00;99684.63;106123;1261;61646;-57
2024/04/04 10:09:21;;;;;;;0.30;0.10;;;;;;;9.22;100.00;99695.13;105882;1259;61209;-58
2024/04/04 10:11:49;;;;;;;0.20;0.10;;;;;;;9.30;100.00;99685.79;106226;1260;75378;-58
2024/04/04 10:14:24;;;;;;;0.70;0.10;;;;;;;9.35;100.00;99691.29;106294;1262;67256;-55
2024/04/04 10:16:55;;;;;;;0.20;0.10;;;;;;;9.37;100.00;99691.41;105835;1260;73570;-54
2024/04/04 10:19:23;;;;;;;0.20;0.10;;;;;;;9.38;100.00;99700.82;105785;1263;62191;-60
2024/04/04 10:21:55;;;;;;;0.30;0.20;;;;;;;9.38;100.00;99702.30;106458;1259;62124;-56
2024/04/04 10:24:28;;;;;;;0.30;0.10;;;;;;;9.32;100.00;99698.98;106123;1262;74867;-56
2024/04/04 10:26:59;;;;;;;0.20;0.10;;;;;;;9.29;100.00;99693.70;105826;1262;69429;-56
2024/04/04 10:29:36;;;;;;;0.50;0.10;;;;;;;9.31;100.00;99696.34;105989;1260;72624;-56
2024/04/04 10:32:06;;;;;;;0.40;0.20;;;;;;;9.34;100.00;99696.39;105912;1260;62951;-55
2024/04/04 10:34:34;;;;;;;0.10;0.10;;;;;;;9.37;100.00;99700.36;105921;1260;62018;-57
2024/04/04 10:37:00;;;;;;;0.20;0.10;;;;;;;9.37;100.00;99705.89;105965;1260;74554;-56
2024/04/04 10:39:28;;;;;;;0.50;0.10;;;;;;;9.32;100.00;99702.36;105769;1262;65195;-57
2024/04/04 10:41:56;;;;;;;0.20;0.10;;;;;;;9.22;100.00;99706.20;105645;1262;73739;-56
2024/04/04 10:44:23;;;;;;;0.40;0.20;;;;;;;9.18;100.00;99703.00;106117;1263;61486;-57
2024/04/04 10:46:52;;;;;;;0.30;0.10;;;;;;;9.18;100.00;99707.98;105799;1259;62129;-55
2024/04/04 10:49:28;;;;;;;0.40;0.10;;;;;;;9.22;100.00;99708.52;105767;1262;74576;-55
2024/04/04 10:51:57;;;;;;;0.20;0.10;;;;;;;9.25;100.00;99705.53;105857;1263;65920;-56
2024/04/04 10:54:24;;;;;;;0.20;0.10;;;;;;;9.31;100.00;99709.02;105988;1262;73167;-54
2024/04/04 10:56:51;;;;;;;0.20;0.20;;;;;;;9.36;100.00;99712.41;105887;1260;61996;-55
2024/04/04 10:59:19;;;;;;;1.20;0.10;;;;;;;9.42;100.00;99703.90;108772;1259;59271;-57
2024/04/04 11:01:46;;;;;;;0.40;0.10;;;;;;;9.47;100.00;99707.94;108876;1260;73253;-56
2024/04/04 11:04:14;;;;;;;0.10;0.10;;;;;;;9.51;100.00;99701.32;108609;1260;65512;-55
2024/04/04 11:06:41;;;;;;;0.30;0.10;;;;;;;9.56;100.00;99704.73;108662;1259;73717;-58
2024/04/04 11:09:12;;;;;;;0.20;0.10;;;;;;;9.63;100.00;99706.36;106794;1261;61307;-57
2024/04/04 11:11:39;;;;;;;1.20;0.10;;;;;;;9.66;100.00;99710.50;108769;1259;60036;-54
2024/04/04 11:14:05;;;;;;;0.10;0.10;;;;;;;9.66;100.00;99711.75;108837;1259;74808;-56
2024/04/04 11:16:32;;;;;;;3.10;0.10;;;;;;;9.65;100.00;99709.29;108795;1258;67925;-55
2024/04/04 11:18:59;;;;;;;0.30;0.20;;;;;;;9.65;100.00;99712.52;108762;1259;72029;-54
2024/04/04 11:21:26;;;;;;;0.30;0.10;;;;;;;9.64;100.00;99712.57;108821;1258;59091;-57
2024/04/04 11:23:52;;;;;;;0.20;0.20;;;;;;;9.66;100.00;99715.16;108791;1257;59174;-56
2024/04/04 11:26:20;;;;;;;0.10;0.10;;;;;;;9.73;100.00;99718.44;108840;1260;74912;-56
2024/04/04 11:28:47;;;;;;;0.20;0.10;;;;;;;9.78;100.00;99715.14;108788;1259;67593;-56